Terminal Aerodrome Forecast
Issued by NWS

Home | Current Version | Previous Version | Text Only | Print | Product List | Glossary On
Versions: 1 2 3 4 5 6 7 8 9 10 11
000
FTUS42 TJSJ 221700
TAFNCM
TAF
TNCM 221739Z 2218/2318 11010KT P6SM SCT021
     FM222300 10008KT P6SM VCSH SCT018 SCT025
     FM231300 10013KT P6SM VCSH SCT025 SCT035=

USA.gov is the U.S. government's official web portal to all federal, state and local government web resources and services.